首页
METAR-TAF:

METAR-TAF

机场 :

薩拉戈薩機場

萨拉戈萨, 西班牙

纬度: 41-40N, 经度: 001-01W, 海拔: 263米

当前天气观测

该预报发布于30分钟前的06:30 UTC
风速7节,风向西
温度 6°C
湿度 81%
气压 1012 hPa
能见度10公里或以上
少量云层高于5000英尺
散云层高于7000英尺

METAR: LEZG 170630Z 27007KT 9999 FEW050 SCT070 06/03 Q1012

时间: 08:00 (07:00 UTC)

预报

该预报发布于2小时和0分钟前的05:00 UTC
预报有效从17日的 06点(UTC)到 18日的 06点(UTC)
风速10节,风向西
能见度10公里或以上
少量云层高于4000英尺
短暂存在
从 17日的 12点(UTC)到 17日的 17点(UTC)
风速15节,风向西,有时为25节阵风
几率 40% :
短暂存在
从 17日的 21点(UTC)到 18日的 02点(UTC)
多云层高于4000英尺

TAF: LEZG 170500Z 1706/1806 28010KT 9999 FEW040 TX13/1713Z TN04/1706Z TEMPO 1712/1717 27015G25KT PROB40 TEMPO 1721/1802 RA BKN040

超过4000个机场的气象观测和天气预报(METAR&TAF报告)。

可查询的气象台以黄色和红色小点在地图上表示。

将鼠标移到小点上方,可查看气象台名称。

然后点击查看天气观测和预报。

如需切换地图:点击带黑十字的绿色按钮放大地图;点击带横线的绿色按钮缩小地图;或者点击绿色箭头查看邻近地区的地图。


METAR-TAF: